Time;durP1;ratioP1;P1;durP2;ratioP2;P2;SDS_P1;SDS_P2;PMS_P1;PMS_P2;Temp;Humidity;BMP_temperature;BMP_pressure;BME280_temperature;BME280_humidity;BME280_pressure;Samples;Min_cycle;Max_cycle;Signal;HPM_P1;HPM_P2
2022/11/10 05:02:25;;;;;;;;;;;20.70;99.90;;;;;;4978529;28;19933;-79
2022/11/10 05:04:51;;;;;;;;;;;20.70;99.90;;;;;;4981603;28;20399;-79
2022/11/10 05:07:18;;;;;;;;;;;20.70;99.90;;;;;;4983944;28;19926;-82
2022/11/10 05:09:44;;;;;;;;;;;20.70;99.90;;;;;;4990505;28;19926;-82
2022/11/10 05:12:11;;;;;;;;;;;20.70;99.90;;;;;;5003051;28;19926;-82
2022/11/10 05:14:37;;;;;;;;;;;20.70;99.90;;;;;;5000523;28;19933;-80
2022/11/10 05:17:04;;;;;;;;;;;20.70;99.90;;;;;;5000180;28;20373;-80
2022/11/10 05:19:32;;;;;;;;;;;20.70;99.90;;;;;;4997876;28;20013;-79
2022/11/10 05:21:59;;;;;;;;;;;20.80;99.90;;;;;;4999206;28;19933;-79
2022/11/10 05:24:25;;;;;;;;;;;20.70;99.90;;;;;;4999480;28;19926;-79
2022/11/10 05:26:52;;;;;;;;;;;20.80;99.90;;;;;;5000559;28;19926;-79
2022/11/10 05:29:18;;;;;;;;;;;20.70;99.90;;;;;;4998049;28;19933;-79
2022/11/10 05:31:45;;;;;;;;;;;20.80;99.90;;;;;;4996064;28;19926;-79
2022/11/10 05:34:13;;;;;;;;;;;20.80;99.90;;;;;;4995824;28;20385;-79
2022/11/10 05:36:41;;;;;;;;;;;20.70;99.90;;;;;;4997566;28;19926;-79
2022/11/10 05:39:07;;;;;;;;;;;20.80;99.90;;;;;;4997591;28;19925;-78
2022/11/10 05:41:34;;;;;;;;;;;20.70;99.90;;;;;;4997179;28;19933;-79
2022/11/10 05:44:00;;;;;;;;;;;20.80;99.90;;;;;;4996859;28;19929;-78
2022/11/10 05:46:27;;;;;;;;;;;20.70;99.90;;;;;;4994819;28;20412;-78
2022/11/10 05:48:54;;;;;;;;;;;20.70;99.90;;;;;;4996430;28;20025;-78
2022/11/10 05:51:20;;;;;;;;;;;20.70;99.90;;;;;;4995884;28;19930;-78
2022/11/10 05:53:48;;;;;;;;;;;20.70;99.90;;;;;;4995204;28;19933;-79
2022/11/10 05:56:15;;;;;;;;;;;20.70;99.90;;;;;;4994211;28;19926;-77
2022/11/10 05:58:41;;;;;;;;;;;20.80;99.90;;;;;;4994157;28;19937;-78
2022/11/10 06:01:08;;;;;;;;;;;20.70;99.90;;;;;;4994271;28;19925;-75
2022/11/10 06:03:34;;;;;;;;;;;20.80;99.90;;;;;;4994077;28;19933;-75
2022/11/10 06:06:01;;;;;;;;;;;20.80;99.90;;;;;;4994346;28;19926;-75
2022/11/10 06:08:27;;;;;;;;;;;20.70;99.90;;;;;;4994351;28;19926;-76
2022/11/10 06:10:55;;;;;;;;;;;20.80;99.90;;;;;;4995129;28;19933;-76
2022/11/10 11:20:40;;;;;;;;;;;20.60;96.00;;;;;;5827109;22;19964;-84
2022/11/10 11:23:16;;;;;;;;;;;20.60;96.00;;;;;;5020229;28;19926;-79
2022/11/10 11:25:44;;;;;;;;;;;20.60;95.60;;;;;;5016428;28;20299;-77
2022/11/10 11:28:17;;;;;;;;;;;20.60;95.60;;;;;;5015985;28;19925;-77
2022/11/10 11:30:51;;;;;;;;;;;20.50;95.40;;;;;;5015844;28;19925;-79
2022/11/10 11:33:25;;;;;;;;;;;20.50;95.20;;;;;;5015851;28;19933;-78
2022/11/10 11:35:54;;;;;;;;;;;20.50;95.20;;;;;;5016626;28;19925;-78
2022/11/10 11:38:26;;;;;;;;;;;20.50;95.10;;;;;;5016221;28;19925;-78
2022/11/10 11:40:57;;;;;;;;;;;20.60;95.10;;;;;;5016045;28;19925;-78
2022/11/10 11:43:38;;;;;;;;;;;20.50;94.90;;;;;;5016232;28;20300;-78
2022/11/10 11:46:08;;;;;;;;;;;20.50;94.80;;;;;;5016334;28;19925;-78
2022/11/10 11:48:40;;;;;;;;;;;20.60;94.80;;;;;;5016437;28;19925;-78
2022/11/10 11:51:09;;;;;;;;;;;20.60;94.80;;;;;;5016083;28;19925;-78
2022/11/10 11:53:43;;;;;;;;;;;20.50;95.00;;;;;;5016617;28;19932;-78
2022/11/10 11:56:17;;;;;;;;;;;20.60;94.70;;;;;;5018292;28;19936;-79
2022/11/10 11:58:44;;;;;;;;;;;20.60;94.80;;;;;;5018195;28;19933;-79
2022/11/10 12:01:18;;;;;;;;;;;20.70;94.80;;;;;;5019028;28;19925;-79
2022/11/10 12:04:08;;;;;;;;;;;20.70;94.80;;;;;;5015947;28;20308;-78
2022/11/10 12:06:40;;;;;;;;;;;20.70;94.80;;;;;;4991053;28;19932;-77
2022/11/10 12:09:15;;;;;;;;;;;20.70;94.80;;;;;;5015147;28;19968;-79
2022/11/10 12:11:49;;;;;;;;;;;20.70;94.90;;;;;;5015521;28;19929;-78
2022/11/10 12:14:20;;;;;;;;;;;20.70;95.00;;;;;;5015523;28;20011;-78
2022/11/10 12:16:51;;;;;;;;;;;20.70;95.20;;;;;;5015419;28;19926;-77
2022/11/10 12:19:23;;;;;;;;;;;20.70;95.30;;;;;;5015438;28;19926;-77
2022/11/10 12:21:51;;;;;;;;;;;20.80;95.40;;;;;;5015282;28;19929;-78
2022/11/10 12:24:43;;;;;;;;;;;20.80;95.60;;;;;;5014939;28;19925;-78
2022/11/10 12:27:11;;;;;;;;;;;20.90;95.70;;;;;;5015411;28;19926;-78
2022/11/10 12:29:41;;;;;;;;;;;20.90;95.70;;;;;;5015311;28;19926;-78
2022/11/10 12:32:11;;;;;;;;;;;20.90;96.10;;;;;;5015345;28;19925;-78
2022/11/10 12:34:41;;;;;;;;;;;20.90;95.80;;;;;;5015715;28;19932;-79
2022/11/10 12:37:12;;;;;;;;;;;20.90;95.90;;;;;;5017746;28;19964;-78
2022/11/10 12:39:46;;;;;;;;;;;20.90;96.10;;;;;;5019967;28;19933;-79
2022/11/10 12:42:15;;;;;;;;;;;20.90;96.10;;;;;;5020678;28;19925;-79
2022/11/10 12:44:48;;;;;;;;;;;20.90;96.20;;;;;;5019972;28;19929;-79
2022/11/10 12:47:17;;;;;;;;;;;20.90;96.30;;;;;;5019799;28;20270;-79
2022/11/10 12:49:50;;;;;;;;;;;20.90;96.40;;;;;;5020209;28;19925;-79
2022/11/10 12:52:19;;;;;;;;;;;20.90;96.50;;;;;;5020869;28;19948;-79
2022/11/10 12:54:48;;;;;;;;;;;20.90;96.60;;;;;;5020797;28;19925;-79
2022/11/10 12:57:17;;;;;;;;;;;20.90;96.70;;;;;;5021734;28;19925;-79
2022/11/10 12:59:50;;;;;;;;;;;20.90;96.80;;;;;;5020949;28;19929;-79
2022/11/10 13:02:21;;;;;;;;;;;21.00;97.00;;;;;;5021147;28;19925;-79
2022/11/10 13:05:03;;;;;;;;;;;21.00;97.00;;;;;;5021489;28;20487;-79
2022/11/10 13:07:30;;;;;;;;;;;21.00;97.20;;;;;;5021270;28;19929;-79
2022/11/10 13:10:15;;;;;;;;;;;21.00;97.20;;;;;;5021537;28;20373;-79
2022/11/10 13:12:57;;;;;;;;;;;20.90;97.30;;;;;;5021545;28;19925;-79
2022/11/10 13:15:42;;;;;;;;;;;21.00;97.40;;;;;;5018518;28;19926;-79
2022/11/10 13:18:09;;;;;;;;;;;21.00;97.50;;;;;;5016550;28;19933;-79
2022/11/10 13:20:47;;;;;;;;;;;21.00;97.60;;;;;;5017598;28;19926;-79
2022/11/10 13:23:21;;;;;;;;;;;21.00;97.60;;;;;;5021150;28;20367;-79
2022/11/10 13:25:54;;;;;;;;;;;20.90;97.60;;;;;;5021476;28;19932;-79
2022/11/10 13:28:39;;;;;;;;;;;20.90;97.70;;;;;;5021875;28;20321;-79
2022/11/10 13:31:21;;;;;;;;;;;20.90;97.70;;;;;;5020701;28;19925;-79
2022/11/10 13:34:03;;;;;;;;;;;20.90;97.70;;;;;;5021068;28;19985;-78
2022/11/10 13:36:36;;;;;;;;;;;20.90;97.70;;;;;;5021824;28;19965;-78
2022/11/10 13:39:16;;;;;;;;;;;20.90;97.80;;;;;;5021853;28;20373;-78
2022/11/10 13:41:47;;;;;;;;;;;20.90;97.80;;;;;;5020547;28;19926;-79
2022/11/10 13:44:24;;;;;;;;;;;20.90;97.80;;;;;;5020862;28;19956;-79
2022/11/10 13:47:01;;;;;;;;;;;20.90;97.80;;;;;;5021054;28;19925;-78
2022/11/10 13:49:34;;;;;;;;;;;20.90;97.80;;;;;;5021397;28;20328;-81
2022/11/10 13:52:06;;;;;;;;;;;20.90;97.80;;;;;;5021661;28;19980;-81
2022/11/10 13:54:47;;;;;;;;;;;20.90;97.80;;;;;;5021797;28;19925;-82
2022/11/10 13:57:22;;;;;;;;;;;20.90;97.70;;;;;;5021759;28;19932;-82
2022/11/10 13:59:51;;;;;;;;;;;20.80;97.70;;;;;;5022032;28;19960;-82
2022/11/10 14:02:37;;;;;;;;;;;20.80;97.60;;;;;;5022818;28;19979;-82
2022/11/10 14:05:05;;;;;;;;;;;20.80;97.60;;;;;;5021165;28;20313;-82
2022/11/10 14:07:36;;;;;;;;;;;20.80;97.60;;;;;;5021641;28;19932;-82
2022/11/10 14:10:05;;;;;;;;;;;20.80;97.60;;;;;;5022729;28;19926;-82
2022/11/10 14:12:35;;;;;;;;;;;20.80;97.60;;;;;;5022419;28;20024;-82
2022/11/10 14:15:05;;;;;;;;;;;20.80;97.60;;;;;;5022548;28;19926;-81
2022/11/10 14:17:34;;;;;;;;;;;20.80;97.60;;;;;;5021870;28;19926;-81
2022/11/10 14:20:01;;;;;;;;;;;20.80;97.60;;;;;;5021100;28;19926;-81
2022/11/10 14:22:30;;;;;;;;;;;20.80;97.60;;;;;;5021619;28;19976;-81
2022/11/10 14:25:00;;;;;;;;;;;20.80;97.60;;;;;;5022514;28;19925;-81
2022/11/10 14:27:28;;;;;;;;;;;20.80;97.60;;;;;;5021281;28;19933;-82
2022/11/10 14:30:07;;;;;;;;;;;20.80;97.60;;;;;;5021120;28;19925;-82
2022/11/10 14:32:35;;;;;;;;;;;20.80;97.60;;;;;;5022738;28;19932;-82
2022/11/10 14:35:02;;;;;;;;;;;20.80;97.60;;;;;;5022753;28;19941;-83
2022/11/10 14:37:29;;;;;;;;;;;20.80;97.60;;;;;;5019561;28;19932;-82
2022/11/10 14:39:57;;;;;;;;;;;20.50;97.40;;;;;;5021360;28;19925;-82
2022/11/10 14:42:25;;;;;;;;;;;20.70;97.50;;;;;;5019564;28;19926;-82
2022/11/10 14:45:07;;;;;;;;;;;20.70;97.50;;;;;;5018932;28;19932;-82
2022/11/10 14:47:34;;;;;;;;;;;20.80;97.60;;;;;;5018950;28;20332;-81
2022/11/10 14:50:14;;;;;;;;;;;20.70;97.50;;;;;;5019013;28;19925;-81
2022/11/10 14:52:42;;;;;;;;;;;20.70;97.50;;;;;;5018938;28;19944;-81
2022/11/10 14:55:13;;;;;;;;;;;20.70;97.50;;;;;;5018975;28;19932;-80
2022/11/10 14:57:39;;;;;;;;;;;20.70;97.50;;;;;;5019079;28;19925;-81
2022/11/10 15:00:13;;;;;;;;;;;20.70;97.40;;;;;;5020361;28;19932;-81
2022/11/10 15:02:39;;;;;;;;;;;20.70;97.40;;;;;;5020991;28;19925;-81
2022/11/10 15:05:09;;;;;;;;;;;20.70;97.40;;;;;;5021934;28;20398;-81
2022/11/10 15:07:36;;;;;;;;;;;20.70;97.70;;;;;;5021269;28;19926;-81
2022/11/10 15:10:04;;;;;;;;;;;20.70;97.40;;;;;;5020555;28;19925;-81
2022/11/10 15:12:31;;;;;;;;;;;20.70;97.40;;;;;;5019743;28;19929;-81
2022/11/10 15:14:58;;;;;;;;;;;20.70;97.40;;;;;;5019777;28;20281;-81
2022/11/10 15:17:40;;;;;;;;;;;20.70;97.30;;;;;;5019425;28;20001;-80
2022/11/10 15:20:21;;;;;;;;;;;20.70;97.30;;;;;;5018582;28;19929;-78
2022/11/10 15:22:50;;;;;;;;;;;20.70;97.40;;;;;;5017270;28;19925;-80
2022/11/10 15:25:18;;;;;;;;;;;20.70;97.70;;;;;;5018352;28;19926;-80
2022/11/10 15:27:55;;;;;;;;;;;20.70;98.00;;;;;;5018720;28;20288;-80
2022/11/10 15:30:23;;;;;;;;;;;20.80;98.10;;;;;;5018403;28;19936;-81
2022/11/10 15:32:50;;;;;;;;;;;20.80;98.30;;;;;;5018905;28;19976;-80
2022/11/10 15:35:25;;;;;;;;;;;20.90;98.60;;;;;;5018452;28;19972;-81
2022/11/10 15:37:58;;;;;;;;;;;20.90;98.80;;;;;;5019419;28;19997;-80
2022/11/10 15:40:33;;;;;;;;;;;21.00;99.10;;;;;;5019121;28;20293;-80
2022/11/10 15:43:24;;;;;;;;;;;21.00;99.30;;;;;;5022439;28;19925;-80
2022/11/10 15:45:54;;;;;;;;;;;21.10;99.60;;;;;;5003135;28;19979;-80
2022/11/10 15:48:21;;;;;;;;;;;21.10;99.80;;;;;;5028829;28;19925;-81
2022/11/10 15:50:50;;;;;;;;;;;21.20;99.90;;;;;;5038162;28;19961;-80
2022/11/10 15:53:20;;;;;;;;;;;21.20;99.90;;;;;;5031087;28;19926;-79
2022/11/10 15:55:47;;;;;;;;;;;21.20;99.90;;;;;;5023304;28;20266;-80
2022/11/10 15:58:14;;;;;;;;;;;21.30;99.90;;;;;;5021696;28;19972;-80
2022/11/10 16:00:41;;;;;;;;;;;21.30;99.90;;;;;;5021593;28;19949;-80
2022/11/10 16:03:09;;;;;;;;;;;21.30;99.90;;;;;;5023698;28;20289;-81
2022/11/10 16:05:38;;;;;;;;;;;21.30;99.90;;;;;;5021426;28;20289;-80
2022/11/10 16:08:08;;;;;;;;;;;21.30;99.90;;;;;;5022294;28;19925;-79
2022/11/10 16:10:37;;;;;;;;;;;21.40;99.90;;;;;;5021556;28;20328;-80
2022/11/10 16:13:05;;;;;;;;;;;21.40;99.90;;;;;;5021358;28;19929;-82
2022/11/10 16:15:32;;;;;;;;;;;21.40;99.90;;;;;;5021566;28;19977;-82
2022/11/10 16:18:01;;;;;;;;;;;21.40;99.80;;;;;;5021945;28;19926;-82
2022/11/10 16:20:27;;;;;;;;;;;21.40;99.60;;;;;;5021360;28;19925;-82
2022/11/10 16:22:54;;;;;;;;;;;21.40;99.50;;;;;;5020927;28;19997;-82
2022/11/10 16:25:21;;;;;;;;;;;21.40;99.40;;;;;;5021044;28;19930;-82
2022/11/10 16:27:50;;;;;;;;;;;21.40;99.20;;;;;;5020737;28;19980;-82
2022/11/10 16:30:17;;;;;;;;;;;21.40;99.10;;;;;;5020708;28;19985;-82
2022/11/10 16:32:43;;;;;;;;;;;21.40;98.90;;;;;;5020159;28;19925;-81
2022/11/10 16:35:12;;;;;;;;;;;21.30;98.60;;;;;;5018482;28;19925;-81
2022/11/10 16:37:39;;;;;;;;;;;21.40;98.40;;;;;;5018331;28;19941;-81
2022/11/10 16:40:11;;;;;;;;;;;21.30;98.40;;;;;;5017484;28;20394;-82
2022/11/10 16:42:38;;;;;;;;;;;21.30;98.30;;;;;;5017748;28;19925;-82
2022/11/10 16:45:12;;;;;;;;;;;21.30;98.00;;;;;;5017815;28;19926;-82
2022/11/10 16:47:39;;;;;;;;;;;21.30;97.80;;;;;;5017739;28;19925;-80
2022/11/10 16:50:09;;;;;;;;;;;21.30;97.60;;;;;;5017146;28;20373;-80
2022/11/10 16:52:36;;;;;;;;;;;21.30;97.50;;;;;;5018122;28;19925;-80
2022/11/10 16:55:03;;;;;;;;;;;21.30;97.30;;;;;;5017651;28;20301;-81
2022/11/10 16:57:29;;;;;;;;;;;21.20;97.10;;;;;;5017389;28;20287;-81
2022/11/10 16:59:56;;;;;;;;;;;21.20;96.90;;;;;;5018495;28;19926;-80
2022/11/10 17:02:28;;;;;;;;;;;21.20;96.70;;;;;;5019002;28;19937;-79
2022/11/10 17:04:55;;;;;;;;;;;21.20;96.90;;;;;;5018694;28;19932;-81
2022/11/10 17:07:23;;;;;;;;;;;21.10;96.40;;;;;;5017646;28;20464;-81
2022/11/10 17:09:50;;;;;;;;;;;21.20;96.30;;;;;;5018661;28;19932;-81
2022/11/10 17:12:16;;;;;;;;;;;21.10;96.10;;;;;;5019298;28;20293;-81
2022/11/10 17:14:43;;;;;;;;;;;21.10;95.80;;;;;;5019023;28;19937;-81
2022/11/10 17:17:13;;;;;;;;;;;21.10;95.80;;;;;;5018475;28;19925;-80
2022/11/10 17:19:42;;;;;;;;;;;21.10;95.80;;;;;;5018065;28;19925;-80
2022/11/10 17:22:09;;;;;;;;;;;21.10;95.70;;;;;;5018050;28;19926;-80
2022/11/10 17:24:36;;;;;;;;;;;21.20;95.60;;;;;;5019184;28;20384;-80
2022/11/10 17:27:02;;;;;;;;;;;21.00;95.40;;;;;;5017412;28;19933;-80
2022/11/10 17:29:29;;;;;;;;;;;21.00;95.30;;;;;;5017003;28;19932;-80
2022/11/10 17:31:56;;;;;;;;;;;21.00;95.30;;;;;;5017425;28;20301;-80
2022/11/10 17:36:54;;;;;;;;;;;21.10;95.90;;;;;;5005700;28;19926;-82
2022/11/10 17:39:21;;;;;;;;;;;21.20;95.90;;;;;;5007776;28;19926;-82
2022/11/10 17:41:49;;;;;;;;;;;21.20;96.00;;;;;;5005787;28;19929;-82
2022/11/10 17:44:16;;;;;;;;;;;21.20;96.20;;;;;;4997864;28;19926;-81
2022/11/10 17:46:43;;;;;;;;;;;21.20;96.30;;;;;;4998174;28;19932;-82
2022/11/10 17:49:09;;;;;;;;;;;21.30;96.40;;;;;;4998472;28;19925;-81
2022/11/10 17:51:36;;;;;;;;;;;21.30;96.40;;;;;;4997621;28;20365;-80
2022/11/10 17:54:05;;;;;;;;;;;21.40;96.50;;;;;;4997987;28;19925;-80
2022/11/10 17:56:32;;;;;;;;;;;21.40;96.40;;;;;;4997825;28;19933;-81
2022/11/10 17:58:58;;;;;;;;;;;21.40;96.40;;;;;;4997848;28;19925;-81
2022/11/10 18:01:25;;;;;;;;;;;21.40;96.30;;;;;;4998461;28;19926;-80
2022/11/10 18:03:52;;;;;;;;;;;21.40;96.20;;;;;;4997561;28;20301;-81
2022/11/10 18:06:19;;;;;;;;;;;21.40;96.00;;;;;;4998092;28;20006;-81
2022/11/10 18:08:46;;;;;;;;;;;21.50;96.00;;;;;;5002106;28;19926;-82
2022/11/10 18:11:14;;;;;;;;;;;21.30;95.90;;;;;;5000767;28;19926;-80
2022/11/10 18:13:41;;;;;;;;;;;21.40;95.90;;;;;;5001135;28;19926;-80
2022/11/10 18:16:09;;;;;;;;;;;21.40;95.70;;;;;;5001138;28;19929;-80
2022/11/10 18:18:36;;;;;;;;;;;21.30;95.60;;;;;;5002255;28;19926;-80
2022/11/10 18:21:02;;;;;;;;;;;21.30;95.40;;;;;;5002722;28;19926;-80
2022/11/10 18:23:29;;;;;;;;;;;21.30;95.30;;;;;;5002352;28;19933;-81
2022/11/10 18:26:02;;;;;;;;;;;21.30;95.20;;;;;;5001623;28;19926;-81
2022/11/10 18:28:30;;;;;;;;;;;21.40;95.10;;;;;;5001795;28;19936;-81
2022/11/10 18:30:56;;;;;;;;;;;21.30;95.00;;;;;;5002244;28;19926;-81
2022/11/10 18:33:23;;;;;;;;;;;21.30;94.90;;;;;;5001334;28;19936;-81
2022/11/10 18:35:49;;;;;;;;;;;21.40;94.90;;;;;;5000213;28;19933;-80
2022/11/10 18:38:16;;;;;;;;;;;21.20;94.60;;;;;;5000713;28;20269;-81
2022/11/10 18:40:42;;;;;;;;;;;21.20;94.50;;;;;;5001452;28;19932;-81
2022/11/10 18:43:09;;;;;;;;;;;21.20;94.40;;;;;;5001201;28;19925;-82
2022/11/10 18:45:37;;;;;;;;;;;21.20;94.40;;;;;;5001883;28;19933;-81
2022/11/10 18:48:04;;;;;;;;;;;20.80;94.10;;;;;;5002309;28;19926;-81
2022/11/10 18:50:30;;;;;;;;;;;21.20;94.30;;;;;;5001831;28;19925;-81
2022/11/10 18:52:57;;;;;;;;;;;21.20;94.30;;;;;;5001846;28;19933;-81
2022/11/10 18:55:24;;;;;;;;;;;21.20;94.30;;;;;;5001820;28;19927;-81
2022/11/10 18:57:51;;;;;;;;;;;21.20;94.30;;;;;;5001313;28;19926;-81
2022/11/10 19:00:18;;;;;;;;;;;21.10;94.30;;;;;;5001495;28;20386;-83
2022/11/10 19:02:46;;;;;;;;;;;21.20;94.40;;;;;;5003228;28;20277;-84
2022/11/10 19:05:12;;;;;;;;;;;21.20;94.40;;;;;;5002881;28;20293;-83
2022/11/10 19:07:39;;;;;;;;;;;21.20;94.40;;;;;;5002615;28;19926;-83
2022/11/10 19:10:07;;;;;;;;;;;21.20;94.30;;;;;;5002493;28;19933;-83
2022/11/10 19:12:34;;;;;;;;;;;21.20;94.30;;;;;;5002379;28;19926;-83
2022/11/10 19:15:00;;;;;;;;;;;21.20;94.30;;;;;;5002797;28;19926;-83
2022/11/10 19:17:27;;;;;;;;;;;21.20;94.20;;;;;;5002319;28;19941;-83
2022/11/10 19:19:55;;;;;;;;;;;21.20;94.20;;;;;;5001986;28;19926;-83
2022/11/10 19:22:22;;;;;;;;;;;21.20;94.10;;;;;;5001895;28;19926;-83
2022/11/10 19:24:48;;;;;;;;;;;21.20;94.00;;;;;;5001819;28;19929;-82
2022/11/10 19:27:15;;;;;;;;;;;21.20;94.00;;;;;;5001858;28;20367;-82
2022/11/10 19:29:41;;;;;;;;;;;21.30;94.00;;;;;;5002045;28;20030;-83
2022/11/10 19:32:08;;;;;;;;;;;21.20;93.90;;;;;;5002221;28;19930;-83
2022/11/10 19:34:35;;;;;;;;;;;21.10;93.70;;;;;;5001990;28;20397;-82
2022/11/10 19:37:03;;;;;;;;;;;21.20;93.70;;;;;;5001844;28;19926;-83
2022/11/10 19:39:29;;;;;;;;;;;21.10;93.60;;;;;;5002298;28;19926;-84
2022/11/10 19:41:56;;;;;;;;;;;21.10;93.50;;;;;;5002432;28;20297;-84
2022/11/10 19:44:22;;;;;;;;;;;21.10;93.40;;;;;;5002313;28;19926;-82
2022/11/10 19:46:49;;;;;;;;;;;20.80;93.20;;;;;;5002758;28;19925;-83
2022/11/10 19:49:16;;;;;;;;;;;20.90;93.30;;;;;;5003980;28;19926;-83
2022/11/10 19:51:42;;;;;;;;;;;21.10;93.40;;;;;;5007033;28;20411;-83
2022/11/10 19:54:12;;;;;;;;;;;21.20;93.40;;;;;;5007540;28;19930;-83
2022/11/10 19:56:39;;;;;;;;;;;21.30;93.50;;;;;;5006741;28;19965;-83
2022/11/10 19:59:06;;;;;;;;;;;21.10;93.40;;;;;;5006505;28;19926;-83
2022/11/10 20:01:36;;;;;;;;;;;20.90;93.30;;;;;;5005354;28;20297;-83
2022/11/10 20:04:03;;;;;;;;;;;21.00;93.40;;;;;;5006606;28;19932;-83
2022/11/10 20:06:29;;;;;;;;;;;20.80;93.30;;;;;;5006760;28;19949;-83
2022/11/10 20:08:56;;;;;;;;;;;21.70;93.80;;;;;;5006667;28;19964;-83
2022/11/10 20:11:25;;;;;;;;;;;21.20;93.50;;;;;;5007167;28;19933;-83
2022/11/10 20:13:53;;;;;;;;;;;21.20;93.50;;;;;;5006224;28;19926;-82
2022/11/10 20:16:19;;;;;;;;;;;21.20;93.60;;;;;;5004191;28;19925;-81
2022/11/10 20:18:46;;;;;;;;;;;21.20;93.50;;;;;;4999035;28;20403;-82
2022/11/10 20:21:13;;;;;;;;;;;21.20;93.40;;;;;;4998902;28;19925;-82
2022/11/10 20:23:40;;;;;;;;;;;21.20;93.40;;;;;;4999814;28;19932;-82
2022/11/10 20:26:08;;;;;;;;;;;21.10;93.40;;;;;;4999269;28;19926;-82
2022/11/10 20:28:38;;;;;;;;;;;21.10;93.40;;;;;;4999262;28;19926;-80
2022/11/10 20:31:05;;;;;;;;;;;21.20;93.40;;;;;;4998057;28;20040;-82
2022/11/10 20:33:32;;;;;;;;;;;21.20;93.60;;;;;;4998889;28;19932;-82
2022/11/10 20:36:06;;;;;;;;;;;21.20;93.60;;;;;;4998072;28;19930;-84
2022/11/10 20:38:33;;;;;;;;;;;21.20;93.50;;;;;;4999006;28;20382;-82
2022/11/10 20:41:04;;;;;;;;;;;21.20;93.50;;;;;;4998203;28;19926;-81
2022/11/10 20:43:32;;;;;;;;;;;21.20;93.50;;;;;;4997639;28;19926;-81
2022/11/10 20:46:00;;;;;;;;;;;21.30;93.50;;;;;;4998220;28;19930;-81
2022/11/10 20:48:28;;;;;;;;;;;21.20;93.40;;;;;;4999026;28;19947;-81
2022/11/10 20:50:55;;;;;;;;;;;21.20;93.40;;;;;;4998503;28;19926;-80
2022/11/10 20:53:21;;;;;;;;;;;21.10;93.40;;;;;;4999309;28;19926;-81
2022/11/10 20:55:48;;;;;;;;;;;21.10;93.40;;;;;;4999219;28;19926;-81
2022/11/10 20:58:14;;;;;;;;;;;21.10;93.40;;;;;;4999512;28;20005;-81
2022/11/10 21:00:41;;;;;;;;;;;21.10;93.40;;;;;;4998687;28;19932;-81
2022/11/10 21:03:09;;;;;;;;;;;21.10;93.40;;;;;;4999411;28;20289;-81
2022/11/10 21:05:36;;;;;;;;;;;21.10;93.40;;;;;;5000076;28;19941;-82
2022/11/10 21:08:02;;;;;;;;;;;21.10;93.50;;;;;;4999660;28;20378;-82
2022/11/10 21:10:29;;;;;;;;;;;21.10;93.60;;;;;;5000043;28;19953;-82
2022/11/10 21:12:55;;;;;;;;;;;21.10;93.70;;;;;;4999668;28;20386;-82
2022/11/10 21:15:21;;;;;;;;;;;21.20;93.90;;;;;;4999738;28;19922;-82
2022/11/10 21:17:48;;;;;;;;;;;21.20;93.90;;;;;;4999993;28;19926;-83
2022/11/10 21:20:16;;;;;;;;;;;21.10;93.90;;;;;;5001160;28;19933;-83
2022/11/10 21:22:43;;;;;;;;;;;21.20;94.00;;;;;;5000172;28;19926;-82
2022/11/10 21:25:09;;;;;;;;;;;21.20;94.10;;;;;;5000053;28;19933;-82
2022/11/10 21:27:36;;;;;;;;;;;21.20;94.10;;;;;;5000847;28;19926;-83
2022/11/10 21:30:03;;;;;;;;;;;21.30;94.20;;;;;;5000821;28;19926;-82
2022/11/10 21:32:30;;;;;;;;;;;21.20;94.20;;;;;;5000761;28;19980;-82
2022/11/10 21:34:56;;;;;;;;;;;21.10;94.20;;;;;;5000339;28;19932;-82
2022/11/10 21:37:24;;;;;;;;;;;21.10;94.20;;;;;;4999845;28;20386;-82
2022/11/10 21:39:51;;;;;;;;;;;21.20;94.30;;;;;;5000177;28;20377;-82
2022/11/10 21:42:20;;;;;;;;;;;21.20;94.30;;;;;;5006481;28;19954;-82
2022/11/10 21:44:47;;;;;;;;;;;21.20;94.40;;;;;;5005997;28;20289;-82
2022/11/10 21:47:14;;;;;;;;;;;21.20;94.40;;;;;;5001743;28;19926;-82
2022/11/10 21:49:40;;;;;;;;;;;21.20;94.40;;;;;;5001819;28;19933;-82
2022/11/10 21:52:07;;;;;;;;;;;21.10;94.50;;;;;;5001992;28;19925;-82
2022/11/10 21:54:35;;;;;;;;;;;21.20;94.60;;;;;;5002095;28;19926;-81
2022/11/10 21:57:01;;;;;;;;;;;21.20;94.70;;;;;;5001633;28;19925;-82
2022/11/10 21:59:28;;;;;;;;;;;21.20;94.70;;;;;;5001803;28;19933;-82
2022/11/10 22:01:54;;;;;;;;;;;21.20;94.80;;;;;;5001468;28;20390;-82
2022/11/10 22:04:21;;;;;;;;;;;21.30;94.90;;;;;;5001625;28;19960;-82
2022/11/10 22:20:30;;;;;;;;;;;21.10;95.60;;;;;;5005536;28;20000;-83
2022/11/10 22:22:57;;;;;;;;;;;21.20;95.90;;;;;;5004300;28;19926;-82
